Time;durP1;ratioP1;P1;durP2;ratioP2;P2;SDS_P1;SDS_P2;PMS_P1;PMS_P2;Temp;Humidity;BMP_temperature;BMP_pressure;BME280_temperature;BME280_humidity;BME280_pressure;Samples;Min_cycle;Max_cycle;Signal;HPM_P1;HPM_P2
2023/04/13 00:00:20;;;;;;;19.83;4.03;;;10.00;99.90;;;;;;5056562;28;20044;-76
2023/04/13 00:02:52;;;;;;;25.90;4.90;;;10.00;99.90;;;;;;5058784;28;20040;-76
2023/04/13 00:05:18;;;;;;;20.40;4.90;;;10.00;99.90;;;;;;5057618;28;20041;-76
2023/04/13 00:07:44;;;;;;;26.85;4.63;;;10.00;99.90;;;;;;5057592;28;20029;-76
2023/04/13 00:10:10;;;;;;;19.45;4.38;;;9.90;99.90;;;;;;5058322;28;20029;-77
2023/04/13 00:12:37;;;;;;;22.40;4.60;;;9.90;99.90;;;;;;5058586;28;20096;-77
2023/04/13 00:15:04;;;;;;;24.70;4.60;;;9.80;99.90;;;;;;5058309;28;20028;-76
2023/04/13 00:17:32;;;;;;;21.23;4.07;;;9.80;99.90;;;;;;5056726;28;20037;-77
2023/04/13 00:19:58;;;;;;;23.95;5.50;;;9.80;99.90;;;;;;5058683;28;20033;-76
2023/04/13 00:22:26;;;;;;;17.02;4.22;;;9.90;99.90;;;;;;5057369;28;20017;-76
2023/04/13 00:24:56;;;;;;;17.02;4.70;;;9.80;99.90;;;;;;5058483;28;20021;-77
2023/04/13 00:27:25;;;;;;;21.00;4.72;;;9.90;99.90;;;;;;5057494;28;20033;-77
2023/04/13 00:29:55;;;;;;;23.48;4.22;;;9.90;99.90;;;;;;5058531;28;20024;-77
2023/04/13 00:32:21;;;;;;;17.05;4.20;;;9.80;99.90;;;;;;5056800;28;20044;-76
2023/04/13 00:34:47;;;;;;;22.95;4.18;;;9.80;99.90;;;;;;5057363;28;20037;-76
2023/04/13 00:37:13;;;;;;;23.20;4.60;;;9.70;99.90;;;;;;5057104;28;20040;-76
2023/04/13 00:39:42;;;;;;;22.58;5.20;;;9.70;99.90;;;;;;5056490;28;20442;-76
2023/04/13 00:42:08;;;;;;;23.20;5.30;;;9.70;99.90;;;;;;5057289;28;20464;-77
2023/04/13 00:44:35;;;;;;;18.20;4.72;;;9.70;99.90;;;;;;5046788;28;20032;-77
2023/04/13 00:47:02;;;;;;;17.08;5.13;;;9.70;99.90;;;;;;5020515;28;20025;-76
2023/04/13 00:49:29;;;;;;;21.05;4.90;;;9.80;99.90;;;;;;5037349;28;20022;-76
2023/04/13 00:51:55;;;;;;;15.52;4.35;;;9.80;99.90;;;;;;5036947;28;20052;-76
2023/04/13 00:54:21;;;;;;;28.83;4.90;;;9.80;99.90;;;;;;5036741;28;20025;-76
2023/04/13 00:56:47;;;;;;;20.23;4.45;;;9.80;99.90;;;;;;5020728;28;20468;-76
2023/04/13 00:59:13;;;;;;;16.35;4.07;;;9.80;99.90;;;;;;5040989;28;20033;-76
2023/04/13 01:01:49;;;;;;;18.23;4.22;;;9.80;99.90;;;;;;5056650;28;20040;-75
2023/04/13 01:04:20;;;;;;;18.88;4.78;;;9.80;99.90;;;;;;5058244;28;20514;-76
2023/04/13 01:07:10;;;;;;;20.27;4.63;;;9.80;99.90;;;;;;5057126;28;20041;-76
2023/04/13 01:09:43;;;;;;;20.30;5.00;;;9.80;99.90;;;;;;5053016;28;20021;-76
2023/04/13 01:12:25;;;;;;;18.25;4.55;;;9.80;99.90;;;;;;5053950;28;20021;-76
2023/04/13 01:14:55;;;;;;;20.75;4.43;;;9.70;99.90;;;;;;5053912;28;20025;-76
2023/04/13 01:17:24;;;;;;;19.52;4.78;;;9.80;99.90;;;;;;5053305;28;20037;-77
2023/04/13 01:19:55;;;;;;;25.65;5.43;;;9.70;99.90;;;;;;5053703;28;20376;-76
2023/04/13 01:22:26;;;;;;;17.17;4.28;;;9.70;99.90;;;;;;5054545;28;20371;-76
2023/04/13 01:25:13;;;;;;;26.35;4.90;;;9.70;99.90;;;;;;5053564;28;20029;-76
2023/04/13 01:27:50;;;;;;;17.17;4.13;;;9.70;99.90;;;;;;5054616;28;20021;-76
2023/04/13 01:30:21;;;;;;;16.85;3.85;;;9.60;99.90;;;;;;5069255;28;20479;-76
2023/04/13 01:32:53;;;;;;;22.38;4.57;;;9.60;99.90;;;;;;5053567;28;20040;-76
2023/04/13 01:35:21;;;;;;;22.17;5.07;;;9.70;99.90;;;;;;5037411;28;20041;-76
2023/04/13 01:37:49;;;;;;;14.60;4.03;;;9.70;99.90;;;;;;5036059;28;20044;-76
2023/04/13 01:40:15;;;;;;;22.50;4.55;;;9.80;99.90;;;;;;5053466;28;20032;-76
2023/04/13 01:42:42;;;;;;;18.42;4.20;;;9.70;99.90;;;;;;5053222;28;20029;-76
2023/04/13 01:45:18;;;;;;;17.95;4.22;;;9.80;99.90;;;;;;5053542;28;20033;-75
2023/04/13 01:48:22;;;;;;;14.90;4.40;;;9.80;99.90;;;;;;5070734;28;20028;-76
2023/04/13 01:50:53;;;;;;;16.60;4.03;;;9.80;99.90;;;;;;5043563;28;20030;-76
2023/04/13 01:53:24;;;;;;;17.15;4.22;;;9.80;99.90;;;;;;5000499;28;20049;-76
2023/04/13 01:55:50;;;;;;;18.85;4.20;;;9.70;99.90;;;;;;5033132;28;20329;-76
2023/04/13 01:58:17;;;;;;;12.48;4.10;;;9.70;99.90;;;;;;5032893;28;20502;-76
2023/04/13 02:00:43;;;;;;;20.27;4.30;;;9.60;99.90;;;;;;5031953;28;20029;-76
2023/04/13 02:03:10;;;;;;;13.18;3.97;;;9.60;99.90;;;;;;5032710;28;20379;-76
2023/04/13 02:05:37;;;;;;;11.23;3.97;;;9.50;99.90;;;;;;5035098;28;20033;-76
2023/04/13 02:08:04;;;;;;;13.50;3.75;;;9.50;99.90;;;;;;5035946;28;20025;-76
2023/04/13 02:10:31;;;;;;;21.48;3.83;;;9.40;99.90;;;;;;5052059;28;20044;-76
2023/04/13 02:12:57;;;;;;;18.65;4.25;;;9.40;99.90;;;;;;5050980;28;20017;-76
2023/04/13 02:15:23;;;;;;;16.55;4.00;;;9.50;99.90;;;;;;5050441;28;20059;-76
2023/04/13 02:17:49;;;;;;;19.70;4.30;;;9.50;99.90;;;;;;5050874;28;20392;-76
2023/04/13 02:20:16;;;;;;;15.23;3.90;;;9.50;99.90;;;;;;5051897;28;20221;-76
2023/04/13 02:22:42;;;;;;;19.92;4.55;;;9.50;99.90;;;;;;5051904;28;20036;-76
2023/04/13 02:25:10;;;;;;;18.58;4.10;;;9.50;99.90;;;;;;5050676;28;20033;-76
2023/04/13 02:27:37;;;;;;;11.80;3.40;;;9.40;99.90;;;;;;5050858;28;20029;-76
2023/04/13 02:30:08;;;;;;;14.10;3.88;;;9.40;99.90;;;;;;5050245;28;20032;-76
2023/04/13 02:32:35;;;;;;;21.15;4.40;;;9.30;99.90;;;;;;5051833;28;20029;-76
2023/04/13 02:35:01;;;;;;;15.18;3.58;;;9.30;99.90;;;;;;5033322;28;20028;-76
2023/04/13 02:37:31;;;;;;;16.25;3.88;;;9.30;99.90;;;;;;5051415;28;20037;-76
2023/04/13 02:39:57;;;;;;;22.92;4.30;;;9.30;99.90;;;;;;5052182;28;20025;-76
2023/04/13 02:42:23;;;;;;;16.60;3.70;;;9.20;99.90;;;;;;5052136;28;20040;-76
2023/04/13 02:44:49;;;;;;;15.43;3.95;;;9.20;99.90;;;;;;5052029;28;20107;-76
2023/04/13 02:47:16;;;;;;;20.00;4.22;;;9.20;99.90;;;;;;5051525;28;20033;-76
2023/04/13 02:49:44;;;;;;;13.85;4.10;;;9.20;99.90;;;;;;5049899;28;20037;-76
2023/04/13 02:52:11;;;;;;;12.98;3.97;;;9.20;99.90;;;;;;5015093;28;20384;-76
2023/04/13 02:54:37;;;;;;;17.65;3.58;;;9.20;99.90;;;;;;5033165;28;20038;-76
2023/04/13 02:57:04;;;;;;;23.45;4.97;;;9.30;99.90;;;;;;5033094;28;20388;-76
2023/04/13 02:59:30;;;;;;;24.20;4.43;;;9.30;99.90;;;;;;5039356;28;20379;-76
2023/04/13 03:01:57;;;;;;;15.50;3.45;;;9.30;99.90;;;;;;5034179;28;20032;-76
2023/04/13 03:04:24;;;;;;;18.02;4.05;;;9.20;99.90;;;;;;5052472;28;20032;-76
2023/04/13 03:06:53;;;;;;;16.73;3.45;;;9.20;99.90;;;;;;5051621;28;20044;-76
2023/04/13 03:09:19;;;;;;;16.98;3.97;;;9.40;99.90;;;;;;5051685;28;20037;-76
2023/04/13 03:11:45;;;;;;;17.77;3.58;;;9.30;99.90;;;;;;5035130;28;20033;-76
2023/04/13 03:14:19;;;;;;;15.10;3.45;;;9.40;99.90;;;;;;5052692;28;20087;-76
2023/04/13 03:16:46;;;;;;;20.80;4.03;;;9.40;99.90;;;;;;5052284;28;20495;-76
2023/04/13 03:19:13;;;;;;;15.27;3.97;;;9.30;99.90;;;;;;5034819;28;20028;-76
2023/04/13 03:21:40;;;;;;;15.13;3.42;;;9.30;99.90;;;;;;5051311;28;20032;-75
2023/04/13 03:24:07;;;;;;;12.65;3.25;;;9.20;99.90;;;;;;5052613;28;20028;-76
2023/04/13 03:26:33;;;;;;;13.30;3.40;;;9.20;99.90;;;;;;5052535;28;20028;-76
2023/04/13 03:29:00;;;;;;;12.57;3.30;;;9.20;99.90;;;;;;5052637;28;20029;-75
2023/04/13 03:31:26;;;;;;;13.68;3.80;;;9.10;99.90;;;;;;5051638;28;20396;-76
2023/04/13 03:33:52;;;;;;;11.27;3.17;;;9.20;99.90;;;;;;5051979;28;20032;-76
2023/04/13 03:36:18;;;;;;;10.07;3.33;;;9.10;99.90;;;;;;5051112;28;20063;-75
2023/04/13 03:38:44;;;;;;;16.23;3.22;;;9.10;99.90;;;;;;5051069;28;20033;-76
2023/04/13 03:41:10;;;;;;;11.45;3.28;;;9.20;99.90;;;;;;5051180;28;20122;-76
2023/04/13 03:43:36;;;;;;;13.82;3.53;;;9.20;99.90;;;;;;5048932;28;20033;-76
2023/04/13 03:46:02;;;;;;;16.38;3.50;;;9.20;99.90;;;;;;5022441;28;20408;-76
2023/04/13 03:48:29;;;;;;;22.52;3.53;;;9.20;99.90;;;;;;5011187;28;20037;-76
2023/04/13 03:50:55;;;;;;;12.35;3.42;;;9.20;99.90;;;;;;5024012;28;20041;-76
2023/04/13 03:53:21;;;;;;;17.85;3.47;;;9.10;99.90;;;;;;5032190;28;20029;-76
2023/04/13 03:55:47;;;;;;;15.32;3.20;;;9.20;99.90;;;;;;5032327;28;20036;-76
2023/04/13 03:58:13;;;;;;;16.48;3.53;;;9.10;99.90;;;;;;5032268;28;20025;-76
2023/04/13 04:00:39;;;;;;;19.77;4.38;;;9.10;99.90;;;;;;5030650;28;20041;-76
2023/04/13 04:03:05;;;;;;;15.38;3.40;;;9.10;99.90;;;;;;5031839;28;20380;-76
2023/04/13 04:05:31;;;;;;;16.33;3.85;;;9.10;99.90;;;;;;5032109;28;20026;-76
2023/04/13 04:07:57;;;;;;;17.10;3.30;;;9.10;99.90;;;;;;5031009;28;20403;-76
2023/04/13 04:10:23;;;;;;;14.23;3.60;;;9.10;99.90;;;;;;5032183;28;20028;-76
2023/04/13 04:12:50;;;;;;;28.90;3.70;;;9.10;99.90;;;;;;5032055;28;20048;-76
2023/04/13 04:15:16;;;;;;;15.57;3.35;;;9.00;99.90;;;;;;5030532;28;20021;-76
2023/04/13 04:17:42;;;;;;;14.43;3.75;;;8.90;99.90;;;;;;5030089;28;20041;-76
2023/04/13 04:20:09;;;;;;;12.10;3.28;;;9.00;99.90;;;;;;5032129;28;20021;-76
2023/04/13 04:22:35;;;;;;;68.32;7.13;;;9.00;99.90;;;;;;5030720;28;20387;-76
2023/04/13 04:25:01;;;;;;;78.28;6.85;;;9.00;99.90;;;;;;5032069;28;20026;-75
2023/04/13 04:27:27;;;;;;;19.90;3.78;;;9.00;99.90;;;;;;5030719;28;20480;-76
2023/04/13 04:29:58;;;;;;;12.25;3.30;;;9.00;99.90;;;;;;5014396;28;20026;-76
2023/04/13 04:32:24;;;;;;;19.75;4.10;;;9.00;99.90;;;;;;5029507;28;20036;-75
2023/04/13 04:34:51;;;;;;;23.45;3.88;;;8.90;99.90;;;;;;5030855;28;20037;-76
2023/04/13 04:37:21;;;;;;;74.55;8.27;;;9.00;99.90;;;;;;5030682;28;20032;-76
2023/04/13 04:39:48;;;;;;;15.53;3.27;;;9.10;99.90;;;;;;5031918;28;20034;-76
2023/04/13 04:42:14;;;;;;;22.55;4.30;;;9.10;99.90;;;;;;5030752;28;20026;-76
2023/04/13 04:44:40;;;;;;;12.70;3.95;;;9.10;99.90;;;;;;5021707;28;20038;-76
2023/04/13 04:47:06;;;;;;;24.98;4.07;;;9.10;99.90;;;;;;5015000;28;20038;-76
2023/04/13 04:49:32;;;;;;;521.58;26.25;;;9.10;99.90;;;;;;5016113;28;20026;-76
2023/04/13 04:51:59;;;;;;;818.60;49.03;;;9.10;99.90;;;;;;5035285;28;20053;-76
2023/04/13 04:54:25;;;;;;;19.40;3.67;;;9.10;99.90;;;;;;5034383;28;20464;-76
2023/04/13 04:56:51;;;;;;;18.90;3.63;;;9.00;99.90;;;;;;5017727;28;20041;-76
2023/04/13 04:59:18;;;;;;;12.10;3.28;;;9.00;99.90;;;;;;5034141;28;20499;-76
2023/04/13 05:01:44;;;;;;;19.27;3.70;;;9.00;99.90;;;;;;5016965;28;20041;-76
2023/04/13 05:04:10;;;;;;;227.80;12.00;;;9.00;99.90;;;;;;5017135;28;20423;-76
2023/04/13 05:06:40;;;;;;;14.48;3.50;;;8.90;99.90;;;;;;5033856;28;20049;-76
2023/04/13 05:09:06;;;;;;;362.25;15.88;;;8.90;99.90;;;;;;5035449;28;20021;-76
2023/04/13 05:11:32;;;;;;;12.90;3.60;;;8.90;99.90;;;;;;5033915;28;20041;-76
2023/04/13 05:13:59;;;;;;;12.75;3.03;;;8.80;99.90;;;;;;5034093;28;20870;-76
2023/04/13 05:16:29;;;;;;;14.48;3.35;;;8.80;99.90;;;;;;5034392;28;20499;-75
2023/04/13 05:18:55;;;;;;;17.63;3.28;;;8.80;99.90;;;;;;5018105;28;20033;-76
2023/04/13 05:21:21;;;;;;;15.18;3.20;;;8.70;99.90;;;;;;5033678;28;20496;-76
2023/04/13 05:23:48;;;;;;;20.38;3.75;;;8.80;99.90;;;;;;5033812;28;20041;-76
2023/04/13 05:26:15;;;;;;;124.30;8.27;;;8.70;99.90;;;;;;5034908;28;20472;-76
2023/04/13 05:28:41;;;;;;;28.58;4.20;;;8.70;99.90;;;;;;5033322;28;20037;-76
2023/04/13 05:31:07;;;;;;;12.00;3.15;;;8.70;99.90;;;;;;5034044;28;20060;-76
2023/04/13 05:33:34;;;;;;;14.07;3.50;;;8.70;99.90;;;;;;5016562;28;20041;-76
2023/04/13 05:36:01;;;;;;;14.50;3.30;;;8.70;99.90;;;;;;5033461;28;20034;-76
2023/04/13 05:38:27;;;;;;;11.75;3.20;;;8.70;99.90;;;;;;5032954;28;20506;-76
2023/04/13 05:40:53;;;;;;;14.02;3.20;;;8.70;99.90;;;;;;5033308;28;20036;-76
2023/04/13 05:43:19;;;;;;;10.02;3.00;;;8.70;99.90;;;;;;5033332;28;20494;-76
2023/04/13 05:45:46;;;;;;;15.43;5.00;;;8.70;99.90;;;;;;5012418;28;20041;-76
2023/04/13 05:48:12;;;;;;;23.55;9.15;;;8.70;99.90;;;;;;5013521;28;20049;-76
2023/04/13 05:50:38;;;;;;;28.35;7.72;;;8.70;99.90;;;;;;5023601;28;20033;-76
2023/04/13 05:53:04;;;;;;;22.20;8.93;;;8.70;99.90;;;;;;5016869;28;20041;-76
2023/04/13 05:55:32;;;;;;;17.92;6.03;;;8.70;99.90;;;;;;5033864;28;20049;-76
2023/04/13 05:57:59;;;;;;;12.38;3.80;;;8.70;99.90;;;;;;5032229;28;20052;-76
2023/04/13 06:00:26;;;;;;;13.63;3.70;;;8.70;99.90;;;;;;5032769;28;20036;-76
2023/04/13 06:02:53;;;;;;;11.32;3.70;;;8.70;99.90;;;;;;5034141;28;20029;-76
2023/04/13 06:05:19;;;;;;;12.02;3.35;;;8.70;99.90;;;;;;5016196;28;20427;-76
2023/04/13 06:07:46;;;;;;;16.88;3.78;;;8.70;99.90;;;;;;5034042;28;20054;-76
2023/04/13 06:10:15;;;;;;;14.45;3.15;;;8.80;99.90;;;;;;5032944;28;20029;-76
2023/04/13 06:12:42;;;;;;;11.95;3.40;;;8.80;99.90;;;;;;5032310;28;20037;-76
2023/04/13 06:15:08;;;;;;;11.57;3.40;;;8.80;99.90;;;;;;5015856;28;20033;-76
2023/04/13 06:17:35;;;;;;;16.38;4.00;;;9.00;99.90;;;;;;4999620;28;20037;-76
2023/04/13 06:20:01;;;;;;;8.90;3.42;;;9.20;99.90;;;;;;5033831;28;20037;-76
2023/04/13 06:22:27;;;;;;;12.93;3.60;;;9.40;99.90;;;;;;5016143;28;20032;-76
2023/04/13 06:24:53;;;;;;;14.85;3.30;;;9.60;99.90;;;;;;5032715;28;20025;-76
2023/04/13 06:27:19;;;;;;;14.73;3.58;;;9.70;99.90;;;;;;5033439;28;20064;-76
2023/04/13 06:29:45;;;;;;;9.35;3.88;;;9.90;99.90;;;;;;5032504;28;20026;-76
2023/04/13 06:32:11;;;;;;;14.85;4.03;;;10.00;99.90;;;;;;5014986;28;20492;-76
2023/04/13 06:34:38;;;;;;;13.20;3.60;;;10.10;99.90;;;;;;5033450;28;20025;-76
2023/04/13 06:37:04;;;;;;;11.15;3.67;;;10.30;99.90;;;;;;5032197;28;20034;-76
2023/04/13 06:39:30;;;;;;;10.02;3.80;;;10.40;99.90;;;;;;5032355;28;20037;-76
2023/04/13 06:41:56;;;;;;;9.85;3.60;;;10.60;99.90;;;;;;5033144;28;20411;-76
2023/04/13 06:44:25;;;;;;;10.30;3.53;;;10.70;99.90;;;;;;5023995;28;20026;-76
2023/04/13 06:46:52;;;;;;;8.23;3.30;;;10.80;99.90;;;;;;5013037;28;20437;-76
2023/04/13 06:49:18;;;;;;;13.35;4.25;;;10.90;99.90;;;;;;5013574;28;20025;-76
2023/04/13 06:51:44;;;;;;;13.85;4.30;;;11.00;99.90;;;;;;5030323;28;20049;-76
2023/04/13 06:54:10;;;;;;;10.68;3.78;;;11.10;99.90;;;;;;5033397;28;20030;-76
2023/04/13 06:56:36;;;;;;;10.73;4.38;;;11.30;99.90;;;;;;5032746;28;20036;-76
2023/04/13 06:59:02;;;;;;;14.25;3.78;;;11.50;99.90;;;;;;5033180;28;20018;-76
2023/04/13 07:01:28;;;;;;;10.05;3.72;;;11.60;99.90;;;;;;5014980;28;20026;-76
2023/04/13 07:03:54;;;;;;;9.10;4.03;;;11.70;99.90;;;;;;5015312;28;20025;-77
2023/04/13 07:06:21;;;;;;;10.27;3.75;;;11.90;99.90;;;;;;5031011;28;20064;-76
2023/04/13 07:08:47;;;;;;;10.00;3.60;;;12.00;99.90;;;;;;5031755;28;20040;-77
2023/04/13 07:11:13;;;;;;;11.68;3.65;;;12.10;99.90;;;;;;5031384;28;20029;-76
2023/04/13 07:13:39;;;;;;;12.25;3.47;;;12.30;99.90;;;;;;5031484;28;20025;-76
2023/04/13 07:16:11;;;;;;;13.15;3.70;;;12.40;99.90;;;;;;5014840;28;20036;-76
2023/04/13 07:18:37;;;;;;;;;;;12.60;99.90;;;;;;5016348;28;20030;-76
2023/04/13 07:21:04;;;;;;;13.15;3.60;;;12.70;99.90;;;;;;5031024;28;20386;-74
2023/04/13 07:23:31;;;;;;;9.98;3.70;;;12.80;99.90;;;;;;5032711;28;20025;-74
2023/04/13 07:25:57;;;;;;;10.63;3.70;;;12.90;99.90;;;;;;5030783;28;20048;-74
2023/04/13 07:28:24;;;;;;;10.68;3.80;;;13.10;99.90;;;;;;5030939;28;20041;-74
2023/04/13 07:30:51;;;;;;;9.68;3.60;;;13.10;99.90;;;;;;5032323;28;20052;-74
2023/04/13 07:33:17;;;;;;;12.32;4.30;;;13.30;99.90;;;;;;5032441;28;20036;-74
2023/04/13 07:35:43;;;;;;;12.02;3.65;;;13.40;99.90;;;;;;5031245;28;20032;-74
2023/04/13 07:38:09;;;;;;;12.50;4.00;;;13.40;99.90;;;;;;5032197;28;20029;-75
2023/04/13 07:40:35;;;;;;;7.22;3.63;;;13.50;99.90;;;;;;5030364;28;20049;-74
2023/04/13 07:43:02;;;;;;;10.60;4.00;;;13.50;99.90;;;;;;5032305;28;20026;-74
2023/04/13 07:45:31;;;;;;;10.00;3.88;;;13.60;99.90;;;;;;5013642;28;20030;-74
2023/04/13 07:47:57;;;;;;;11.95;4.05;;;13.80;99.90;;;;;;5011379;28;20049;-74
2023/04/13 07:50:23;;;;;;;11.13;4.15;;;14.00;99.90;;;;;;5019916;28;20033;-74
2023/04/13 07:52:50;;;;;;;8.38;3.88;;;14.10;99.90;;;;;;5014557;28;20052;-74
2023/04/13 07:55:16;;;;;;;10.10;3.83;;;14.20;99.90;;;;;;5014420;28;20384;-75
2023/04/13 07:57:42;;;;;;;12.02;4.47;;;14.30;99.90;;;;;;5032191;28;20040;-74
2023/04/13 08:00:09;;;;;;;9.68;4.10;;;14.50;99.90;;;;;;5031708;28;20033;-73
2023/04/13 08:02:36;;;;;;;11.90;4.20;;;14.60;99.90;;;;;;5014569;28;20380;-74
2023/04/13 08:05:02;;;;;;;7.80;4.05;;;14.70;99.90;;;;;;5032575;28;20044;-74
2023/04/13 08:07:28;;;;;;;12.27;4.57;;;14.80;99.90;;;;;;5030335;28;20496;-74
2023/04/13 08:09:54;;;;;;;9.45;4.60;;;14.90;99.90;;;;;;5031739;28;20033;-75
2023/04/13 08:12:21;;;;;;;10.10;4.53;;;15.10;99.90;;;;;;5014003;28;20060;-74
2023/04/13 08:14:47;;;;;;;10.75;4.80;;;15.30;99.90;;;;;;5032015;28;20032;-74
2023/04/13 08:17:14;;;;;;;11.88;5.20;;;15.50;99.90;;;;;;5031188;28;20505;-74
2023/04/13 08:19:40;;;;;;;9.27;4.75;;;15.40;99.90;;;;;;5036065;28;20026;-74
2023/04/13 08:22:06;;;;;;;7.65;4.50;;;15.50;99.90;;;;;;5035999;28;20421;-74
2023/04/13 08:24:33;;;;;;;9.45;4.93;;;15.70;99.90;;;;;;5034378;28;20018;-74
2023/04/13 08:26:59;;;;;;;9.05;5.25;;;15.90;99.90;;;;;;5034749;28;20496;-73
2023/04/13 08:29:26;;;;;;;10.60;5.00;;;15.90;99.90;;;;;;5034689;28;20029;-74
2023/04/13 08:31:52;;;;;;;7.80;4.90;;;16.00;99.90;;;;;;5033677;28;20049;-74
2023/04/13 08:34:18;;;;;;;9.60;4.95;;;15.90;99.90;;;;;;5018097;28;20037;-74
2023/04/13 08:36:44;;;;;;;7.85;4.53;;;16.10;99.90;;;;;;5035564;28;20030;-74
2023/04/13 08:39:11;;;;;;;13.82;5.63;;;16.10;99.90;;;;;;5034079;28;20038;-75
2023/04/13 08:41:37;;;;;;;11.02;5.40;;;16.10;99.90;;;;;;5035763;28;20200;-74
2023/04/13 08:44:07;;;;;;;8.40;4.90;;;16.20;99.90;;;;;;5028716;28;20037;-75
2023/04/13 08:46:33;;;;;;;10.73;5.85;;;16.10;99.90;;;;;;5014139;28;20034;-74
2023/04/13 08:49:00;;;;;;;8.00;5.70;;;16.10;99.90;;;;;;4998286;28;20056;-73
2023/04/13 08:51:28;;;;;;;14.80;5.40;;;16.20;99.90;;;;;;5030283;28;20049;-74
2023/04/13 08:53:55;;;;;;;8.57;5.00;;;16.10;99.90;;;;;;5017679;28;20025;-74
2023/04/13 08:56:21;;;;;;;15.00;5.55;;;16.10;99.90;;;;;;5017469;28;20037;-74
2023/04/13 08:58:47;;;;;;;11.45;5.25;;;16.10;99.90;;;;;;5034179;28;20041;-75
2023/04/13 09:01:14;;;;;;;12.18;5.35;;;16.30;99.90;;;;;;5017205;28;20041;-74
2023/04/13 09:03:54;;;;;;;6.70;5.05;;;16.50;99.90;;;;;;5017676;28;20033;-74
2023/04/13 09:06:25;;;;;;;12.97;4.93;;;16.60;99.90;;;;;;5017326;28;20392;-73
2023/04/13 09:08:52;;;;;;;9.98;5.35;;;16.50;99.90;;;;;;5018069;28;20036;-75
2023/04/13 09:11:19;;;;;;;10.15;5.10;;;16.20;99.90;;;;;;5033950;28;20380;-74
2023/04/13 09:13:49;;;;;;;11.55;4.80;;;16.10;99.90;;;;;;5033853;28;20503;-74
2023/04/13 09:16:16;;;;;;;11.38;5.03;;;15.90;99.90;;;;;;5034599;28;20026;-74
2023/04/13 09:18:52;;;;;;;7.90;4.82;;;16.00;99.90;;;;;;5017394;28;20029;-74
2023/04/13 09:21:18;;;;;;;9.88;4.65;;;16.00;99.90;;;;;;5033560;28;20030;-74
2023/04/13 09:23:57;;;;;;;13.45;4.32;;;15.80;99.90;;;;;;5034965;28;20029;-74
2023/04/13 09:26:23;;;;;;;11.75;4.72;;;15.60;99.90;;;;;;5017022;28;20038;-74
2023/04/13 09:28:51;;;;;;;10.07;4.25;;;15.60;99.90;;;;;;4999689;28;20032;-74
2023/04/13 09:31:18;;;;;;;10.00;5.10;;;15.60;99.90;;;;;;5016786;28;20053;-74
2023/04/13 09:33:48;;;;;;;9.50;4.05;;;15.50;99.90;;;;;;5033488;28;20025;-74
2023/04/13 09:36:19;;;;;;;12.82;4.25;;;15.50;99.90;;;;;;5017392;28;20036;-74
2023/04/13 09:38:52;;;;;;;;;;;15.30;99.90;;;;;;5033811;28;20048;-74
2023/04/13 09:41:37;;;;;;;9.35;3.80;;;14.80;99.90;;;;;;5033535;28;19905;-74
2023/04/13 09:44:26;;;;;;;5.22;3.38;;;14.60;99.90;;;;;;5027746;28;20026;-74
2023/04/13 09:46:58;;;;;;;6.47;3.65;;;14.30;99.90;;;;;;5014299;28;20034;-74
2023/04/13 09:49:25;;;;;;;7.80;4.00;;;14.20;99.90;;;;;;5014662;28;20115;-74
2023/04/13 09:51:53;;;;;;;6.78;4.07;;;14.20;99.90;;;;;;5032084;28;20048;-74
2023/04/13 09:54:20;;;;;;;7.07;3.72;;;14.40;99.90;;;;;;5017016;28;20022;-73
2023/04/13 09:56:51;;;;;;;6.97;3.60;;;14.60;99.90;;;;;;5033179;28;20029;-74
2023/04/13 09:59:18;;;;;;;6.35;3.97;;;14.80;99.90;;;;;;5034461;28;20381;-74
2023/04/13 10:01:44;;;;;;;11.50;4.05;;;14.90;99.90;;;;;;5032255;28;20034;-74
2023/04/13 10:04:10;;;;;;;9.60;4.00;;;15.10;99.90;;;;;;5033049;28;20026;-74
2023/04/13 10:06:38;;;;;;;10.18;3.90;;;15.00;99.90;;;;;;5033682;28;20384;-74
2023/04/13 10:09:04;;;;;;;7.38;3.58;;;14.80;99.90;;;;;;5016792;28;20045;-74
2023/04/13 10:11:33;;;;;;;7.30;3.20;;;14.50;99.90;;;;;;5034010;28;20025;-74
2023/04/13 10:14:01;;;;;;;9.20;3.90;;;14.40;99.90;;;;;;5034077;28;20863;-74
2023/04/13 10:16:54;;;;;;;11.27;3.70;;;14.30;99.90;;;;;;5033466;28;20519;-74
2023/04/13 10:19:22;;;;;;;9.95;3.67;;;14.00;99.90;;;;;;5033499;28;20030;-73
2023/04/13 10:21:50;;;;;;;9.93;4.07;;;13.80;99.90;;;;;;5032511;28;20026;-74
2023/04/13 10:24:17;;;;;;;10.32;4.20;;;13.90;99.90;;;;;;5032693;28;20022;-74
2023/04/13 10:26:43;;;;;;;8.95;4.40;;;13.90;99.90;;;;;;5016251;28;20022;-73
2023/04/13 10:29:12;;;;;;;11.27;4.57;;;14.00;99.90;;;;;;5032471;28;20044;-74
2023/04/13 10:31:46;;;;;;;9.52;5.00;;;14.20;99.90;;;;;;5016048;28;20032;-74
2023/04/13 10:34:22;;;;;;;7.85;5.18;;;14.10;99.90;;;;;;5015846;28;20028;-74
2023/04/13 10:36:50;;;;;;;7.75;5.10;;;14.40;99.90;;;;;;5032277;28;20029;-74
2023/04/13 10:39:23;;;;;;;14.63;4.75;;;14.60;99.90;;;;;;5033231;28;20037;-74
2023/04/13 10:42:01;;;;;;;9.27;4.22;;;14.80;99.90;;;;;;5032190;28;20029;-74
2023/04/13 10:44:39;;;;;;;5.20;4.00;;;14.90;99.90;;;;;;5023436;28;20030;-74
2023/04/13 10:47:07;;;;;;;9.65;4.00;;;15.10;99.90;;;;;;4996965;28;20034;-74
2023/04/13 10:49:33;;;;;;;5.57;4.35;;;15.00;99.90;;;;;;5013665;28;20028;-74
2023/04/13 10:51:59;;;;;;;9.00;4.05;;;15.10;99.90;;;;;;5033058;28;20052;-74
2023/04/13 10:54:29;;;;;;;7.55;4.88;;;14.90;99.90;;;;;;5033137;28;20028;-73
2023/04/13 10:56:56;;;;;;;9.15;5.35;;;14.80;99.90;;;;;;5032114;28;20025;-74
2023/04/13 10:59:22;;;;;;;6.13;4.00;;;14.80;99.90;;;;;;5031748;28;20033;-74
2023/04/13 11:01:48;;;;;;;6.13;4.50;;;14.70;99.90;;;;;;5032346;28;20033;-73
2023/04/13 11:04:15;;;;;;;6.15;4.28;;;14.70;99.90;;;;;;5031472;28;20029;-74
2023/04/13 11:06:41;;;;;;;5.20;4.55;;;14.70;99.90;;;;;;5015232;28;20032;-74
2023/04/13 11:09:10;;;;;;;6.93;4.72;;;14.80;99.90;;;;;;5031247;28;20041;-74
2023/04/13 11:11:36;;;;;;;7.65;4.45;;;14.90;99.90;;;;;;5031571;28;20025;-74
2023/04/13 11:14:02;;;;;;;5.18;4.68;;;15.00;99.90;;;;;;5015244;28;20041;-74
2023/04/13 11:16:28;;;;;;;5.95;4.90;;;15.20;99.90;;;;;;5031179;28;20033;-73
2023/04/13 11:19:02;;;;;;;5.43;4.95;;;15.20;99.90;;;;;;5030689;28;20514;-74
2023/04/13 11:21:28;;;;;;;7.78;5.63;;;15.20;99.90;;;;;;5030999;28;20056;-74
2023/04/13 11:23:54;;;;;;;5.35;4.57;;;15.10;99.90;;;;;;5032620;28;20088;-74
2023/04/13 11:26:50;;;;;;;7.95;5.70;;;14.90;99.90;;;;;;5032626;28;20388;-74
2023/04/13 11:29:17;;;;;;;5.72;4.60;;;14.60;99.90;;;;;;5011282;28;20519;-74
2023/04/13 11:31:44;;;;;;;6.97;4.20;;;14.20;99.90;;;;;;5031255;28;20406;-73
2023/04/13 11:34:10;;;;;;;8.63;3.92;;;13.70;99.90;;;;;;5032573;28;20030;-73
2023/04/13 11:36:38;;;;;;;5.68;3.58;;;13.30;99.90;;;;;;5030373;28;20048;-73
2023/04/13 11:39:08;;;;;;;5.20;3.50;;;12.50;99.90;;;;;;5031383;28;20033;-74
2023/04/13 11:41:41;;;;;;;4.10;3.17;;;12.00;99.90;;;;;;5031176;28;20029;-74
2023/04/13 11:44:10;;;;;;;7.40;3.22;;;11.60;99.90;;;;;;5025035;28;20034;-75
2023/04/13 11:46:36;;;;;;;5.13;2.70;;;11.60;99.90;;;;;;4994603;28;20393;-75
2023/04/13 11:49:03;;;;;;;4.50;2.95;;;11.60;99.90;;;;;;5011372;28;20034;-75
2023/04/13 11:51:30;;;;;;;3.10;2.80;;;11.70;99.90;;;;;;5007426;28;20046;-75
2023/04/13 11:53:57;;;;;;;4.28;3.00;;;11.80;99.90;;;;;;5012405;28;20030;-75
2023/04/13 11:56:24;;;;;;;3.95;2.90;;;11.90;99.90;;;;;;5012200;28;20393;-75
2023/04/13 11:58:52;;;;;;;6.25;2.90;;;12.10;99.90;;;;;;5011303;28;20493;-75
2023/04/13 12:01:20;;;;;;;3.40;2.72;;;12.10;99.90;;;;;;5011756;28;20030;-75
2023/04/13 12:03:46;;;;;;;3.75;2.40;;;12.10;99.90;;;;;;5012381;28;20030;-74
2023/04/13 12:06:15;;;;;;;2.75;2.55;;;12.00;99.90;;;;;;5012466;28;20033;-75
2023/04/13 12:08:41;;;;;;;2.72;2.15;;;11.70;99.90;;;;;;5011151;28;20041;-74
2023/04/13 12:11:08;;;;;;;2.53;2.05;;;11.80;99.90;;;;;;5011927;28;20042;-74
2023/04/13 12:13:43;;;;;;;2.67;2.10;;;11.50;99.90;;;;;;5011307;28;20026;-75
2023/04/13 12:16:11;;;;;;;2.47;2.30;;;11.60;99.90;;;;;;5010522;28;20034;-75
2023/04/13 12:18:46;;;;;;;2.72;2.40;;;11.80;99.90;;;;;;5011077;28;20385;-75
2023/04/13 12:21:14;;;;;;;3.50;3.20;;;12.10;99.90;;;;;;5011185;28;20034;-75
2023/04/13 12:23:55;;;;;;;2.10;1.90;;;12.40;99.90;;;;;;5011146;28;20030;-74
2023/04/13 12:26:29;;;;;;;1.98;1.88;;;12.70;99.90;;;;;;5012490;28;20049;-74
2023/04/13 12:28:57;;;;;;;2.60;2.40;;;12.80;99.90;;;;;;5011129;28;20042;-74
2023/04/13 12:31:23;;;;;;;2.38;2.17;;;13.00;99.90;;;;;;5010403;28;20457;-73
2023/04/13 12:33:50;;;;;;;2.42;2.22;;;13.10;99.90;;;;;;5010903;28;20042;-73
2023/04/13 12:36:16;;;;;;;2.40;2.20;;;13.30;99.90;;;;;;5012169;28;20512;-73
2023/04/13 12:38:42;;;;;;;3.13;2.30;;;13.30;99.90;;;;;;5028217;28;20041;-73
2023/04/13 12:41:09;;;;;;;2.58;2.40;;;13.50;99.90;;;;;;5031842;28;20037;-73
2023/04/13 12:43:35;;;;;;;2.60;2.40;;;13.60;99.90;;;;;;5047021;28;20033;-73
2023/04/13 12:46:01;;;;;;;2.85;2.65;;;13.60;99.90;;;;;;5013478;28;20030;-73
2023/04/13 12:48:29;;;;;;;2.92;2.78;;;13.70;99.90;;;;;;5031797;28;20038;-73